createdAt,value
2023-03-11T00:00:23.005Z,-0.08
2023-03-11T00:02:52.014Z,-0.12
2023-03-11T00:05:22.500Z,-0.17
2023-03-11T00:07:49.151Z,-0.17
2023-03-11T00:10:18.027Z,-0.15
2023-03-11T00:12:44.658Z,-0.24
2023-03-11T00:15:12.494Z,-0.27
2023-03-11T00:17:39.187Z,-0.28
2023-03-11T00:20:06.933Z,-0.32
2023-03-11T00:22:33.553Z,-0.35
2023-03-11T00:25:00.317Z,-0.36
2023-03-11T00:27:26.821Z,-0.37
2023-03-11T00:29:53.322Z,-0.40
2023-03-11T00:32:19.858Z,-0.35
2023-03-11T00:34:46.411Z,-0.39
2023-03-11T00:37:12.950Z,-0.41
2023-03-11T00:39:39.484Z,-0.33
2023-03-11T00:42:07.095Z,-0.37
2023-03-11T00:44:33.608Z,-0.44
2023-03-11T00:47:01.047Z,-0.37
2023-03-11T00:49:27.576Z,-0.29
2023-03-11T00:51:54.154Z,-0.38
2023-03-11T00:54:20.911Z,-0.40
2023-03-11T00:56:47.818Z,-0.33
2023-03-11T00:59:14.545Z,-0.34
2023-03-11T01:01:41.236Z,-0.25
2023-03-11T01:04:07.894Z,-0.22
2023-03-11T01:06:44.850Z,-0.25
2023-03-11T01:09:14.395Z,-0.28
2023-03-11T01:11:40.912Z,-0.27
2023-03-11T01:14:08.509Z,-0.38
2023-03-11T01:16:35.102Z,-0.51
2023-03-11T01:19:01.701Z,-0.45
2023-03-11T01:21:28.259Z,-0.51
2023-03-11T01:23:54.776Z,-0.52
2023-03-11T01:26:21.300Z,-0.38
2023-03-11T01:28:47.820Z,-0.46
2023-03-11T01:31:14.407Z,-0.38
2023-03-11T01:33:41.131Z,-0.43
2023-03-11T01:36:08.084Z,-0.43
2023-03-11T01:38:34.664Z,-0.41
2023-03-11T01:41:01.321Z,-0.46
2023-03-11T01:43:43.244Z,-0.45
2023-03-11T01:46:13.579Z,-0.48
2023-03-11T01:48:45.116Z,-0.46
2023-03-11T01:51:12.334Z,-0.45
2023-03-11T01:53:39.584Z,-0.43
2023-03-11T01:56:07.006Z,-0.43
2023-03-11T01:58:41.695Z,-0.40
2023-03-11T02:01:08.455Z,-0.45
2023-03-11T02:03:38.549Z,-0.42
2023-03-11T02:06:12.576Z,-0.40
2023-03-11T02:08:41.394Z,-0.41
2023-03-11T02:11:13.704Z,-0.43
2023-03-11T02:13:42.046Z,-0.57
2023-03-11T02:16:09.089Z,-0.53
2023-03-11T02:18:36.894Z,-0.56
2023-03-11T02:21:09.735Z,-0.57
2023-03-11T02:23:50.655Z,-0.54
2023-03-11T02:26:25.698Z,-0.54
2023-03-11T02:28:54.426Z,-0.67
2023-03-11T02:31:22.215Z,-0.64
2023-03-11T02:33:52.949Z,-0.73
2023-03-11T02:36:38.779Z,-0.79
2023-03-11T02:39:08.483Z,-0.81
2023-03-11T02:41:39.956Z,-0.71
2023-03-11T02:44:11.740Z,-0.75
2023-03-11T02:46:39.359Z,-0.82
2023-03-11T02:49:06.528Z,-0.76
2023-03-11T02:51:33.749Z,-0.82
2023-03-11T02:54:04.664Z,-0.77
2023-03-11T02:56:34.603Z,-0.74
2023-03-11T02:59:01.131Z,-0.70
2023-03-11T03:01:28.868Z,-0.72
2023-03-11T03:03:55.709Z,-0.77
2023-03-11T03:06:22.449Z,-0.71
2023-03-11T03:08:51.222Z,-0.71
2023-03-11T03:11:17.846Z,-0.76
2023-03-11T03:13:45.986Z,-0.77
2023-03-11T03:16:12.813Z,-0.81
2023-03-11T03:18:39.358Z,-0.87
2023-03-11T03:21:05.968Z,-0.93
2023-03-11T03:23:35.201Z,-1.05
2023-03-11T03:26:02.257Z,-1.08
2023-03-11T03:28:28.900Z,-1.19
2023-03-11T03:30:55.498Z,-1.13
2023-03-11T03:33:22.237Z,-1.11
2023-03-11T03:35:49.205Z,-1.12
2023-03-11T03:38:20.147Z,-1.18
2023-03-11T03:40:48.958Z,-1.22
2023-03-11T03:43:18.491Z,-1.24
2023-03-11T03:45:46.428Z,-1.21
2023-03-11T03:48:13.008Z,-1.24
2023-03-11T03:50:43.590Z,-1.13
2023-03-11T03:53:13.770Z,-1.10
2023-03-11T03:55:41.094Z,-1.06
2023-03-11T03:58:08.632Z,-0.97
2023-03-11T04:00:36.281Z,-0.97
2023-03-11T04:03:03.887Z,-1.06
2023-03-11T04:05:46.722Z,-1.06
2023-03-11T04:08:14.102Z,-1.01
2023-03-11T04:10:40.911Z,-1.09
2023-03-11T04:13:07.981Z,-1.09
2023-03-11T04:15:34.600Z,-1.03
2023-03-11T04:18:01.167Z,-0.98
2023-03-11T04:20:28.083Z,-1.07
2023-03-11T04:22:54.697Z,-1.04
2023-03-11T04:25:23.503Z,-1.01
2023-03-11T04:27:52.235Z,-0.94
2023-03-11T04:30:19.685Z,-0.97
2023-03-11T04:32:48.226Z,-0.85
2023-03-11T04:35:14.894Z,-0.86
2023-03-11T04:37:41.560Z,-0.87
2023-03-11T04:40:11.137Z,-0.88
2023-03-11T04:42:39.017Z,-0.91
2023-03-11T04:45:07.745Z,-0.95
2023-03-11T04:47:34.501Z,-1.08
2023-03-11T04:50:03.984Z,-1.10
2023-03-11T04:52:30.760Z,-1.04
2023-03-11T04:54:57.572Z,-1.05
2023-03-11T04:57:24.586Z,-1.06
2023-03-11T04:59:51.214Z,-1.10
2023-03-11T05:02:18.257Z,-1.18
2023-03-11T05:04:52.655Z,-1.29
2023-03-11T05:07:19.744Z,-1.27
2023-03-11T05:09:46.938Z,-1.33
2023-03-11T05:12:13.559Z,-1.27
2023-03-11T05:14:42.317Z,-1.33
2023-03-11T05:17:11.975Z,-1.38
2023-03-11T05:19:38.519Z,-1.39
2023-03-11T05:22:13.715Z,-1.46
2023-03-11T05:24:41.162Z,-1.49
2023-03-11T05:27:08.446Z,-1.48
2023-03-11T05:29:36.890Z,-1.54
2023-03-11T05:32:05.714Z,-1.54
2023-03-11T05:34:32.441Z,-1.65
2023-03-11T05:37:00.954Z,-1.60
2023-03-11T05:39:29.659Z,-1.64
2023-03-11T05:41:56.733Z,-1.70
2023-03-11T05:44:23.869Z,-1.64
2023-03-11T05:46:51.003Z,-1.68
2023-03-11T05:49:18.380Z,-1.57
2023-03-11T05:51:47.934Z,-1.47
2023-03-11T05:54:17.442Z,-1.45
2023-03-11T05:56:47.560Z,-1.41
2023-03-11T05:59:16.642Z,-1.34
2023-03-11T06:01:45.549Z,-1.29
2023-03-11T06:04:12.442Z,-1.30
2023-03-11T06:06:42.971Z,-1.47
2023-03-11T06:09:13.430Z,-1.54
2023-03-11T06:11:41.393Z,-1.57
2023-03-11T06:14:12.440Z,-1.57
2023-03-11T06:16:39.718Z,-1.44
2023-03-11T06:19:06.734Z,-1.37
2023-03-11T06:21:37.849Z,-1.33
2023-03-11T06:24:05.004Z,-1.33
2023-03-11T06:26:32.033Z,-1.32
2023-03-11T06:28:58.721Z,-1.28
2023-03-11T06:31:28.141Z,-1.29
2023-03-11T06:34:00.471Z,-1.23
2023-03-11T06:36:27.473Z,-1.24
2023-03-11T06:38:54.999Z,-1.04
2023-03-11T06:41:24.235Z,-0.97
2023-03-11T06:43:50.953Z,-0.89
2023-03-11T06:46:20.435Z,-0.86
2023-03-11T06:48:47.300Z,-0.90
2023-03-11T06:51:16.118Z,-0.82
2023-03-11T06:53:42.742Z,-0.73
2023-03-11T06:56:13.175Z,-0.78
2023-03-11T06:58:50.075Z,-0.91
2023-03-11T07:01:22.520Z,-0.88
2023-03-11T07:03:51.205Z,-0.80
2023-03-11T07:06:22.349Z,-0.75
2023-03-11T07:08:52.191Z,-0.82
2023-03-11T07:11:22.605Z,-0.60
2023-03-11T07:13:52.113Z,-0.74
2023-03-11T07:16:25.134Z,-0.52
2023-03-11T07:18:56.839Z,-0.24
2023-03-11T07:21:23.896Z,-0.16
2023-03-11T07:23:55.561Z,-0.16
2023-03-11T07:26:23.087Z,-0.35
2023-03-11T07:28:49.632Z,-0.27
2023-03-11T07:31:19.761Z,-0.11
2023-03-11T07:33:47.088Z,0.00
2023-03-11T07:36:17.200Z,-0.00
2023-03-11T07:38:44.684Z,-0.09
2023-03-11T07:41:12.930Z,-0.14
2023-03-11T07:43:41.041Z,-0.05
2023-03-11T07:46:10.939Z,0.05
2023-03-11T07:48:40.123Z,0.03
2023-03-11T07:51:24.515Z,-0.05
2023-03-11T07:53:53.078Z,0.05
2023-03-11T07:56:23.608Z,0.09
2023-03-11T07:58:51.042Z,0.22
2023-03-11T08:01:21.498Z,0.20
2023-03-11T08:03:51.244Z,0.34
2023-03-11T08:06:20.659Z,0.52
2023-03-11T08:08:48.734Z,0.45
2023-03-11T08:11:16.335Z,0.50
2023-03-11T08:13:44.666Z,0.47
2023-03-11T08:16:14.325Z,0.35
2023-03-11T08:18:40.980Z,0.60
2023-03-11T08:21:09.988Z,0.75
2023-03-11T08:23:36.732Z,0.62
2023-03-11T08:26:05.029Z,0.56
2023-03-11T08:28:31.553Z,0.20
2023-03-11T08:30:58.129Z,0.18
2023-03-11T08:33:24.684Z,0.12
2023-03-11T08:35:51.761Z,0.09
2023-03-11T08:38:18.385Z,0.07
2023-03-11T08:40:44.916Z,-0.11
2023-03-11T08:43:13.795Z,-0.26
2023-03-11T08:45:43.863Z,-0.38
2023-03-11T08:48:11.778Z,-0.19
2023-03-11T08:50:53.352Z,0.08
2023-03-11T08:53:21.354Z,0.42
2023-03-11T08:55:47.986Z,0.72
2023-03-11T08:58:14.556Z,0.69
2023-03-11T09:00:41.069Z,0.85
2023-03-11T09:03:07.679Z,1.20
2023-03-11T09:05:34.344Z,1.43
2023-03-11T09:08:04.911Z,1.61
2023-03-11T09:10:31.970Z,1.51
2023-03-11T09:12:58.458Z,1.46
2023-03-11T09:15:24.980Z,1.60
2023-03-11T09:17:51.601Z,1.65
2023-03-11T09:20:18.412Z,1.65
2023-03-11T09:22:44.924Z,1.68
2023-03-11T09:25:15.022Z,1.76
2023-03-11T09:27:41.596Z,1.94
2023-03-11T09:30:09.693Z,2.19
2023-03-11T09:32:37.087Z,2.27
2023-03-11T09:35:04.260Z,2.10
2023-03-11T09:37:30.806Z,2.29
2023-03-11T09:39:59.836Z,2.24
2023-03-11T09:42:26.404Z,2.63
2023-03-11T09:45:11.858Z,2.80
2023-03-11T09:48:10.588Z,3.17
2023-03-11T09:50:47.322Z,3.52
2023-03-11T09:53:34.037Z,3.74
2023-03-11T09:56:04.829Z,3.70
2023-03-11T09:58:42.795Z,3.79
2023-03-11T10:01:26.317Z,3.76
2023-03-11T10:03:56.466Z,3.57
2023-03-11T10:06:29.552Z,3.95
2023-03-11T10:09:25.382Z,4.04
2023-03-11T10:11:57.858Z,4.01
2023-03-11T10:14:36.157Z,3.94
2023-03-11T10:17:22.880Z,3.99
2023-03-11T10:20:01.087Z,4.23
2023-03-11T10:22:41.158Z,4.43
2023-03-11T10:25:14.165Z,4.21
2023-03-11T10:27:51.868Z,4.23
2023-03-11T10:30:33.784Z,4.21
2023-03-11T10:33:08.974Z,4.23
2023-03-11T10:35:41.386Z,4.40
2023-03-11T10:38:40.821Z,4.53
2023-03-11T10:41:18.158Z,4.39
2023-03-11T10:43:54.722Z,4.42
2023-03-11T10:46:26.734Z,4.47
2023-03-11T10:48:53.324Z,4.80
2023-03-11T10:51:26.701Z,4.84
2023-03-11T10:53:55.907Z,4.66
2023-03-11T10:56:29.452Z,4.67
2023-03-11T10:58:57.446Z,4.73
2023-03-11T11:01:24.830Z,4.66
2023-03-11T11:03:55.786Z,4.91
2023-03-11T11:06:34.204Z,5.00
2023-03-11T11:09:24.507Z,5.26
2023-03-11T11:12:02.805Z,5.25
2023-03-11T11:14:52.675Z,5.24
2023-03-11T11:17:33.881Z,5.42
2023-03-11T11:20:13.260Z,5.74
2023-03-11T11:22:51.414Z,5.31
2023-03-11T11:25:25.668Z,5.26
2023-03-11T11:28:00.700Z,5.19
2023-03-11T11:30:29.240Z,5.44
2023-03-11T11:32:55.943Z,5.41
2023-03-11T11:35:24.860Z,5.60
2023-03-11T11:37:54.549Z,5.98
2023-03-11T11:40:28.857Z,6.09
2023-03-11T11:43:13.985Z,6.01
2023-03-11T11:45:56.937Z,6.17
2023-03-11T11:49:00.803Z,6.21
2023-03-11T11:51:35.530Z,6.35
2023-03-11T11:54:21.364Z,6.62
2023-03-11T11:56:50.189Z,6.70
2023-03-11T11:59:18.917Z,6.33
2023-03-11T12:01:59.899Z,6.45
2023-03-11T12:04:48.740Z,6.57
2023-03-11T12:07:27.651Z,6.85
2023-03-11T12:10:19.802Z,6.98
2023-03-11T12:13:28.991Z,6.78
2023-03-11T12:16:23.310Z,6.35
2023-03-11T12:19:02.481Z,5.81
2023-03-11T12:21:56.693Z,5.91
2023-03-11T12:24:53.574Z,6.14
2023-03-11T12:27:27.699Z,6.40
2023-03-11T12:30:02.111Z,6.52
2023-03-11T12:32:40.257Z,6.75
2023-03-11T12:35:27.698Z,7.03
2023-03-11T12:38:04.503Z,7.42
2023-03-11T12:40:50.532Z,7.70
2023-03-11T12:43:30.572Z,7.62
2023-03-11T12:46:01.376Z,7.05
2023-03-11T12:48:27.808Z,6.67
2023-03-11T12:50:54.559Z,6.95
2023-03-11T12:53:40.969Z,6.91
2023-03-11T12:56:31.861Z,7.21
2023-03-11T12:59:13.997Z,7.51
2023-03-11T13:02:23.132Z,8.02
2023-03-11T13:04:49.576Z,7.34
2023-03-11T13:07:22.076Z,7.52
2023-03-11T13:10:06.983Z,7.84
2023-03-11T13:12:47.985Z,8.11
2023-03-11T13:15:20.403Z,7.98
2023-03-11T13:18:03.467Z,8.17
2023-03-11T13:20:38.884Z,7.98
2023-03-11T13:23:14.454Z,8.08
2023-03-11T13:25:42.763Z,8.31
2023-03-11T13:28:43.277Z,8.06
2023-03-11T13:31:24.612Z,7.85
2023-03-11T13:34:17.485Z,7.77
2023-03-11T13:37:05.807Z,8.09
2023-03-11T13:40:00.188Z,8.18
2023-03-11T13:42:32.689Z,8.46
2023-03-11T13:44:59.842Z,8.75
2023-03-11T13:47:28.875Z,8.82
2023-03-11T13:50:01.138Z,8.64
2023-03-11T13:52:33.273Z,8.56
2023-03-11T13:55:19.178Z,8.34
2023-03-11T13:57:54.858Z,8.61
2023-03-11T14:00:27.877Z,8.50
2023-03-11T14:02:58.002Z,8.11
2023-03-11T14:05:27.898Z,8.33
2023-03-11T14:07:54.484Z,8.55
2023-03-11T14:10:24.801Z,8.23
2023-03-11T14:12:52.703Z,8.40
2023-03-11T14:15:23.396Z,8.36
2023-03-11T14:17:54.351Z,8.17
2023-03-11T14:20:28.847Z,8.16
2023-03-11T14:22:56.348Z,8.11
2023-03-11T14:25:28.953Z,7.84
2023-03-11T14:28:04.755Z,7.40
2023-03-11T14:30:33.948Z,7.08
2023-03-11T14:33:04.323Z,6.70
2023-03-11T14:35:33.641Z,6.68
2023-03-11T14:38:01.136Z,6.52
2023-03-11T14:40:31.191Z,6.57
2023-03-11T14:43:04.387Z,6.54
2023-03-11T14:45:34.148Z,6.65
2023-03-11T14:48:10.282Z,6.60
2023-03-11T14:50:36.984Z,6.51
2023-03-11T14:53:16.209Z,6.77
2023-03-11T14:55:50.999Z,6.97
2023-03-11T14:58:36.995Z,6.67
2023-03-11T15:01:19.180Z,6.51
2023-03-11T15:03:55.116Z,6.16
2023-03-11T15:06:29.891Z,6.21
2023-03-11T15:09:11.368Z,6.16
2023-03-11T15:11:47.658Z,6.05
2023-03-11T15:14:24.449Z,6.16
2023-03-11T15:16:53.189Z,6.30
2023-03-11T15:19:29.886Z,6.28
2023-03-11T15:22:17.057Z,6.29
2023-03-11T15:24:51.260Z,6.09
2023-03-11T15:27:29.475Z,5.86
2023-03-11T15:29:57.042Z,5.75
2023-03-11T15:32:24.860Z,5.54
2023-03-11T15:35:12.841Z,5.37
2023-03-11T15:37:41.130Z,5.18
2023-03-11T15:40:11.637Z,4.97
2023-03-11T15:42:38.790Z,5.06
2023-03-11T15:45:16.082Z,5.02
2023-03-11T15:47:43.108Z,4.88
2023-03-11T15:50:25.180Z,4.77
2023-03-11T15:52:55.122Z,4.69
2023-03-11T15:55:22.683Z,4.58
2023-03-11T15:57:50.477Z,4.62
2023-03-11T16:00:23.512Z,4.58
2023-03-11T16:02:50.645Z,4.37
2023-03-11T16:05:20.711Z,4.10
2023-03-11T16:07:47.410Z,4.19
2023-03-11T16:10:16.300Z,4.16
2023-03-11T16:12:42.866Z,4.24
2023-03-11T16:15:26.431Z,4.25
2023-03-11T16:17:53.716Z,4.24
2023-03-11T16:20:22.154Z,4.21
2023-03-11T16:22:50.989Z,4.25
2023-03-11T16:25:27.610Z,4.08
2023-03-11T16:27:56.096Z,3.90
2023-03-11T16:30:27.213Z,3.98
2023-03-11T16:32:53.810Z,4.01
2023-03-11T16:35:21.173Z,3.95
2023-03-11T16:37:48.454Z,3.99
2023-03-11T16:40:18.783Z,4.02
2023-03-11T16:42:45.973Z,4.06
2023-03-11T16:45:13.685Z,4.01
2023-03-11T16:47:40.433Z,3.94
2023-03-11T16:50:07.875Z,4.01
2023-03-11T16:52:34.515Z,3.96
2023-03-11T16:55:01.096Z,3.76
2023-03-11T16:57:27.834Z,3.78
2023-03-11T16:59:54.389Z,3.64
2023-03-11T17:02:24.341Z,3.55
2023-03-11T17:04:51.120Z,3.54
2023-03-11T17:07:17.680Z,3.49
2023-03-11T17:09:44.352Z,3.46
2023-03-11T17:12:13.384Z,3.47
2023-03-11T17:14:40.082Z,3.28
2023-03-11T17:17:07.674Z,3.20
2023-03-11T17:19:34.296Z,3.17
2023-03-11T17:22:00.820Z,3.20
2023-03-11T17:24:27.360Z,3.08
2023-03-11T17:26:53.887Z,2.93
2023-03-11T17:29:20.433Z,2.69
2023-03-11T17:31:47.097Z,2.81
2023-03-11T17:34:14.631Z,2.74
2023-03-11T17:36:41.176Z,2.60
2023-03-11T17:39:07.773Z,2.48
2023-03-11T17:41:34.311Z,2.38
2023-03-11T17:44:00.804Z,2.37
2023-03-11T17:46:27.391Z,2.37
2023-03-11T17:48:54.023Z,2.30
2023-03-11T17:51:23.402Z,2.19
2023-03-11T17:53:50.716Z,2.17
2023-03-11T17:56:19.048Z,2.12
2023-03-11T17:58:46.195Z,2.05
2023-03-11T18:01:16.069Z,1.98
2023-03-11T18:03:43.241Z,1.91
2023-03-11T18:06:12.877Z,1.85
2023-03-11T18:08:39.521Z,1.87
2023-03-11T18:11:13.529Z,1.92
2023-03-11T18:13:40.942Z,1.96
2023-03-11T18:16:17.852Z,1.96
2023-03-11T18:18:45.010Z,1.91
2023-03-11T18:21:14.217Z,1.95
2023-03-11T18:23:41.636Z,1.95
2023-03-11T18:26:10.096Z,1.93
2023-03-11T18:28:36.686Z,2.00
2023-03-11T18:31:13.299Z,1.96
2023-03-11T18:33:40.636Z,1.89
2023-03-11T18:36:19.301Z,1.88
2023-03-11T18:38:46.065Z,1.77
2023-03-11T18:41:12.601Z,1.67
2023-03-11T18:43:39.452Z,1.68
2023-03-11T18:46:11.488Z,1.52
2023-03-11T18:48:38.327Z,1.35
2023-03-11T18:51:05.553Z,1.28
2023-03-11T18:53:32.199Z,1.25
2023-03-11T18:56:00.866Z,1.15
2023-03-11T18:58:27.828Z,1.09
2023-03-11T19:00:54.609Z,1.02
2023-03-11T19:03:21.387Z,0.93
2023-03-11T19:05:50.776Z,0.83
2023-03-11T19:08:17.480Z,0.80
2023-03-11T19:10:44.025Z,0.72
2023-03-11T19:13:10.639Z,0.63
2023-03-11T19:15:41.468Z,0.52
2023-03-11T19:18:08.784Z,0.49
2023-03-11T19:20:35.392Z,0.43
2023-03-11T19:23:02.341Z,0.35
2023-03-11T19:25:28.918Z,0.32
2023-03-11T19:27:56.358Z,0.26
2023-03-11T19:30:23.266Z,0.27
2023-03-11T19:32:52.940Z,0.19
2023-03-11T19:35:21.212Z,0.15
2023-03-11T19:37:48.264Z,-0.02
2023-03-11T19:40:15.666Z,-0.09
2023-03-11T19:42:42.402Z,-0.11
2023-03-11T19:45:09.648Z,-0.20
2023-03-11T19:47:36.262Z,-0.27
2023-03-11T19:50:02.905Z,-0.18
2023-03-11T19:52:29.497Z,-0.27
2023-03-11T19:54:56.129Z,-0.29
2023-03-11T19:57:22.692Z,-0.29
2023-03-11T19:59:49.297Z,-0.28
2023-03-11T20:02:16.459Z,-0.37
2023-03-11T20:04:43.408Z,-0.47
2023-03-11T20:07:10.303Z,-0.45
2023-03-11T20:09:36.871Z,-0.38
2023-03-11T20:12:03.744Z,-0.45
2023-03-11T20:14:30.304Z,-0.45
2023-03-11T20:16:57.463Z,-0.49
2023-03-11T20:19:26.496Z,-0.43
2023-03-11T20:21:53.064Z,-0.47
2023-03-11T20:24:19.704Z,-0.54
2023-03-11T20:26:46.332Z,-0.55
2023-03-11T20:29:12.862Z,-0.60
2023-03-11T20:31:39.509Z,-0.51
2023-03-11T20:34:06.443Z,-0.58
2023-03-11T20:36:33.541Z,-0.64
2023-03-11T20:39:00.648Z,-0.68
2023-03-11T20:41:28.127Z,-0.69
2023-03-11T20:43:56.812Z,-0.71
2023-03-11T20:46:23.573Z,-0.72
2023-03-11T20:48:52.400Z,-0.72
2023-03-11T20:51:20.515Z,-0.69
2023-03-11T20:53:47.757Z,-0.73
2023-03-11T20:56:18.400Z,-0.83
2023-03-11T20:58:46.012Z,-0.79
2023-03-11T21:01:24.430Z,-0.86
2023-03-11T21:03:54.229Z,-0.95
2023-03-11T21:06:27.212Z,-1.05
2023-03-11T21:08:55.711Z,-1.04
2023-03-11T21:11:23.929Z,-1.09
2023-03-11T21:13:51.548Z,-1.19
2023-03-11T21:16:18.493Z,-1.16
2023-03-11T21:18:48.662Z,-1.20
2023-03-11T21:21:17.637Z,-1.22
2023-03-11T21:23:46.684Z,-1.23
2023-03-11T21:26:14.943Z,-1.27
2023-03-11T21:28:46.173Z,-1.32
2023-03-11T21:31:16.993Z,-1.33
2023-03-11T21:33:44.120Z,-1.23
2023-03-11T21:36:12.073Z,-1.26
2023-03-11T21:38:40.458Z,-1.27
2023-03-11T21:41:10.172Z,-1.32
2023-03-11T21:43:37.623Z,-1.29
2023-03-11T21:46:05.317Z,-1.23
2023-03-11T21:48:33.303Z,-1.19
2023-03-11T21:51:00.345Z,-1.20
2023-03-11T21:53:26.979Z,-1.22
2023-03-11T21:55:53.968Z,-1.25
2023-03-11T21:58:20.771Z,-1.21
2023-03-11T22:00:47.511Z,-1.13
2023-03-11T22:03:14.231Z,-1.04
2023-03-11T22:05:40.808Z,-1.20
2023-03-11T22:08:07.452Z,-1.20
2023-03-11T22:10:34.107Z,-1.10
2023-03-11T22:13:00.717Z,-1.18
2023-03-11T22:15:27.556Z,-1.29
2023-03-11T22:17:54.159Z,-1.30
2023-03-11T22:20:22.173Z,-1.25
2023-03-11T22:22:48.835Z,-1.25
2023-03-11T22:25:15.385Z,-1.31
2023-03-11T22:27:41.902Z,-1.22
2023-03-11T22:30:08.944Z,-1.29
2023-03-11T22:32:35.576Z,-1.24
2023-03-11T22:35:02.299Z,-1.18
2023-03-11T22:37:28.922Z,-1.22
2023-03-11T22:39:55.510Z,-1.27
2023-03-11T22:42:22.057Z,-1.27
2023-03-11T22:44:48.620Z,-1.32
2023-03-11T22:47:15.219Z,-1.28
2023-03-11T22:49:42.548Z,-1.22
2023-03-11T22:52:09.099Z,-1.26
2023-03-11T22:54:37.479Z,-1.27
2023-03-11T22:57:04.041Z,-1.24
2023-03-11T22:59:30.915Z,-1.24
2023-03-11T23:01:57.921Z,-1.24
2023-03-11T23:04:24.714Z,-1.22
2023-03-11T23:06:54.335Z,-1.24
2023-03-11T23:09:22.619Z,-1.16
2023-03-11T23:11:50.438Z,-1.12
2023-03-11T23:14:17.075Z,-1.17
2023-03-11T23:16:44.098Z,-1.14
2023-03-11T23:19:11.406Z,-1.09
2023-03-11T23:21:38.107Z,-1.03
2023-03-11T23:24:06.414Z,-0.92
2023-03-11T23:26:34.565Z,-1.04
2023-03-11T23:29:03.147Z,-1.08
2023-03-11T23:31:30.746Z,-1.00
2023-03-11T23:33:57.547Z,-0.91
2023-03-11T23:36:27.506Z,-1.00
2023-03-11T23:38:54.069Z,-0.99
2023-03-11T23:41:21.877Z,-0.91
2023-03-11T23:43:48.409Z,-0.91
2023-03-11T23:46:15.587Z,-0.86
2023-03-11T23:48:42.369Z,-0.89
2023-03-11T23:51:09.342Z,-0.88
2023-03-11T23:53:36.976Z,-0.86
2023-03-11T23:56:16.888Z,-0.89
2023-03-11T23:58:44.289Z,-0.92
